Time;durP1;ratioP1;P1;durP2;ratioP2;P2;SDS_P1;SDS_P2;PMS_P1;PMS_P2;Temp;Humidity;BMP_temperature;BMP_pressure;BME280_temperature;BME280_humidity;BME280_pressure;Samples;Min_cycle;Max_cycle;Signal;HPM_P1;HPM_P2
2021/12/07 00:00:12;;;;;;;;;1.20;0.80;;;;;3.32;79.79;98651.72;5010037;28;8969;-54
2021/12/07 00:02:40;;;;;;;;;0.40;0.40;;;;;3.32;79.74;98651.72;5009783;28;8862;-54
2021/12/07 00:05:08;;;;;;;;;0.00;0.00;;;;;3.33;79.58;98651.59;5009216;28;8969;-54
2021/12/07 00:07:36;;;;;;;;;1.40;1.00;;;;;3.34;79.47;98658.53;5010274;28;8969;-54
2021/12/07 00:10:04;;;;;;;;;0.00;0.00;;;;;3.35;79.06;98662.88;5009595;28;8858;-54
2021/12/07 00:12:35;;;;;;;;;0.80;0.80;;;;;3.36;78.88;98656.66;5010720;28;8889;-54
2021/12/07 00:15:03;;;;;;;;;0.00;0.00;;;;;3.38;78.88;98653.91;5008686;28;8858;-53
2021/12/07 00:17:31;;;;;;;;;0.00;0.00;;;;;3.39;79.03;98668.75;5009318;28;8854;-54
2021/12/07 00:19:59;;;;;;;;;0.00;0.00;;;;;3.40;78.92;98659.91;5010659;28;9714;-54
2021/12/07 00:22:26;;;;;;;;;0.00;0.00;;;;;3.42;79.32;98668.53;5008625;28;8854;-54
2021/12/07 00:24:54;;;;;;;;;0.00;0.00;;;;;3.44;79.27;98659.59;5008416;28;8843;-54
2021/12/07 00:27:22;;;;;;;;;0.20;0.20;;;;;3.47;79.18;98662.00;5008628;28;8862;-54
2021/12/07 00:29:50;;;;;;;;;0.00;0.00;;;;;3.48;79.42;98666.28;5007758;28;8981;-54
2021/12/07 00:32:25;;;;;;;;;0.00;0.00;;;;;3.51;79.19;98652.94;5008237;28;8859;-54
2021/12/07 00:37:37;;;;;;;;;0.00;0.00;;;;;3.57;78.36;98652.47;5006478;28;8898;-54
2021/12/07 00:40:05;;;;;;;;;0.00;0.00;;;;;3.59;78.66;98653.22;5008194;28;8873;-54
2021/12/07 00:42:33;;;;;;;;;0.00;0.00;;;;;3.59;78.86;98653.22;5007618;28;8870;-54
2021/12/07 00:45:01;;;;;;;;;0.00;0.00;;;;;3.63;78.79;98648.59;5009293;28;8846;-54
2021/12/07 00:47:28;;;;;;;;;0.00;0.00;;;;;3.63;79.34;98646.78;5009323;28;8981;-54
2021/12/07 00:49:56;;;;;;;;;0.00;0.00;;;;;3.63;78.75;98652.03;5007705;28;8850;-54
2021/12/07 00:52:24;;;;;;;;;0.00;0.00;;;;;3.64;79.25;98653.72;5007703;28;8877;-54
2021/12/07 00:54:52;;;;;;;;;0.00;0.00;;;;;3.64;78.79;98640.56;5009795;28;8855;-54
2021/12/07 00:57:21;;;;;;;;;0.00;0.00;;;;;3.67;78.92;98653.50;5009212;28;8868;-54
2021/12/07 00:59:49;;;;;;;;;0.00;0.00;;;;;3.68;79.27;98647.28;5008814;28;8917;-54
2021/12/07 01:02:16;;;;;;;;;0.00;0.00;;;;;3.69;79.32;98646.34;5009256;28;8969;-54
2021/12/07 01:04:51;;;;;;;;;0.00;0.00;;;;;3.72;78.70;98655.81;5009612;28;8858;-54
2021/12/07 01:07:38;;;;;;;;;0.00;0.00;;;;;3.72;79.06;98656.63;5008189;28;8855;-54
2021/12/07 01:26:37;;;;;;;;;0.00;0.00;;;;;3.47;79.71;98690.09;5013791;28;9636;-54
2021/12/07 01:29:05;;;;;;;;;0.00;0.00;;;;;3.42;80.19;98692.22;5013779;28;8850;-54
2021/12/07 01:31:43;;;;;;;;;0.00;0.00;;;;;3.39;80.02;98698.53;5014010;28;8850;-54
2021/12/07 01:34:27;;;;;;;;;0.00;0.00;;;;;3.36;79.73;98697.91;5012130;28;9184;-54
2021/12/07 01:37:12;;;;;;;;;0.00;0.00;;;;;3.33;80.47;98703.38;5012812;28;8981;-54
2021/12/07 01:40:05;;;;;;;;;0.00;0.00;;;;;3.31;80.22;98708.75;5012218;28;9543;-54
2021/12/07 01:43:22;;;;;;;;;0.00;0.00;;;;;3.31;80.33;98715.78;5011898;28;8867;-54
2021/12/07 01:51:32;;;;;;;;;0.00;0.00;;;;;3.29;80.17;98726.44;5000802;28;8953;-54
2021/12/07 01:59:34;;;;;;;;;0.00;0.00;;;;;3.18;80.45;98736.00;5013382;28;8862;-54
2021/12/07 02:02:01;;;;;;;;;0.00;0.00;;;;;3.15;81.06;98744.09;5013038;28;8846;-54
2021/12/07 02:04:29;;;;;;;;;0.00;0.00;;;;;3.12;80.47;98744.31;5012327;28;8854;-55
2021/12/07 02:06:57;;;;;;;;;0.00;0.00;;;;;3.09;80.83;98744.53;5012497;28;8929;-54
2021/12/07 02:09:25;;;;;;;;;0.00;0.00;;;;;3.07;80.86;98746.41;5011707;28;8843;-55
2021/12/07 02:11:59;;;;;;;;;0.00;0.00;;;;;3.04;81.08;98752.72;5012462;28;9493;-55
2021/12/07 02:14:26;;;;;;;;;0.20;0.20;;;;;3.04;81.02;98752.72;5012296;28;8861;-55
2021/12/07 02:16:54;;;;;;;;;0.00;0.00;;;;;3.03;80.95;98750.22;5011835;28;8854;-55
2021/12/07 02:19:22;;;;;;;;;0.00;0.00;;;;;3.02;80.86;98759.88;5012912;28;9516;-54
2021/12/07 02:21:50;;;;;;;;;1.00;0.60;;;;;3.01;81.40;98763.47;5013605;28;8889;-54
2021/12/07 02:24:17;;;;;;;;;0.00;0.00;;;;;3.01;81.34;98773.97;5011022;28;9596;-54
2021/12/07 02:26:47;;;;;;;;;0.00;0.00;;;;;3.02;80.89;98774.81;5012892;28;9533;-54
2021/12/07 02:29:15;;;;;;;;;0.00;0.00;;;;;3.03;81.24;98771.25;5011273;28;9659;-54
2021/12/07 02:31:42;;;;;;;;;0.40;0.00;;;;;3.02;81.20;98780.09;5012441;28;8861;-54
2021/12/07 02:34:10;;;;;;;;;0.00;0.00;;;;;3.01;81.28;98794.16;5012514;28;8854;-54
2021/12/07 02:36:38;;;;;;;;;0.00;0.00;;;;;2.98;81.58;98800.47;5011686;28;8850;-54
2021/12/07 02:39:06;;;;;;;;;0.60;0.60;;;;;2.99;81.25;98812.69;5010800;28;8865;-55
2021/12/07 02:41:34;;;;;;;;;0.20;0.20;;;;;2.97;81.13;98813.72;5011810;28;8835;-54
2021/12/07 02:44:01;;;;;;;;;0.00;0.00;;;;;2.94;81.06;98817.41;5011328;28;8936;-55
2021/12/07 02:46:29;;;;;;;;;0.00;0.00;;;;;2.89;81.25;98824.72;5011967;28;8862;-54
2021/12/07 02:48:57;;;;;;;;;3.40;2.20;;;;;2.86;81.81;98813.59;5011282;28;8843;-54
2021/12/07 02:51:25;;;;;;;;;1.00;1.00;;;;;2.83;81.67;98819.91;5021717;28;8828;-54
2021/12/07 02:53:54;;;;;;;;;1.00;1.00;;;;;2.81;81.50;98829.66;5053185;28;8834;-54
2021/12/07 02:56:22;;;;;;;;;1.00;1.00;;;;;2.77;81.43;98833.44;5052556;28;8920;-55
2021/12/07 02:58:50;;;;;;;;;1.00;1.00;;;;;2.71;81.63;98833.84;5052683;28;8876;-54
2021/12/07 03:01:22;;;;;;;;;1.00;1.00;;;;;2.68;81.15;98844.56;5041338;28;8906;-54
2021/12/07 03:03:59;;;;;;;;;1.40;1.00;;;;;2.64;80.99;98844.88;5034994;28;8828;-55
2021/12/07 03:06:36;;;;;;;;;2.20;2.20;;;;;2.60;82.09;98861.75;5032157;28;8929;-55
2021/12/07 03:09:42;;;;;;;;;1.00;0.60;;;;;2.54;81.68;98872.66;5045518;28;8838;-54
2021/12/07 03:26:04;;;;;;;;;1.00;1.00;;;;;2.14;82.26;98889.28;5012703;28;8877;-54
2021/12/07 03:28:32;;;;;;;;;1.00;1.00;;;;;2.12;82.17;98892.00;5051981;28;8956;-55
2021/12/07 03:31:00;;;;;;;;;0.80;0.80;;;;;2.10;82.30;98904.38;5052061;28;8854;-55
2021/12/07 03:33:27;;;;;;;;;0.00;0.00;;;;;2.08;82.32;98905.41;5051780;28;8988;-54
2021/12/07 03:35:56;;;;;;;;;0.80;0.60;;;;;2.09;82.88;98901.84;5051255;28;8899;-54
2021/12/07 03:38:24;;;;;;;;;1.00;0.80;;;;;2.09;82.17;98918.44;5032823;28;8844;-55
2021/12/07 03:40:52;;;;;;;;;3.00;3.00;;;;;2.06;82.61;98923.88;5031701;28;8926;-55
2021/12/07 03:43:19;;;;;;;;;1.00;1.00;;;;;2.02;82.46;98919.75;5034754;28;9358;-54
2021/12/07 03:45:47;;;;;;;;;3.00;3.00;;;;;2.02;82.39;98927.63;5051968;28;8830;-54
2021/12/07 03:48:15;;;;;;;;;3.00;3.00;;;;;2.02;82.58;98929.41;5051286;28;8846;-54
2021/12/07 03:50:43;;;;;;;;;3.00;3.00;;;;;2.04;82.57;98931.00;5052374;28;8842;-54
2021/12/07 03:53:11;;;;;;;;;2.60;2.60;;;;;2.06;82.24;98933.53;5048244;28;8974;-54
2021/12/07 03:55:38;;;;;;;;;1.80;1.80;;;;;2.09;82.58;98939.44;5030355;28;8837;-54
2021/12/07 03:58:06;;;;;;;;;3.00;3.00;;;;;2.12;82.53;98938.41;5031175;28;8855;-55
2021/12/07 04:00:34;;;;;;;;;2.60;2.60;;;;;2.14;82.48;98944.41;5031313;28;8832;-54
2021/12/07 04:03:07;;;;;;;;;3.00;3.00;;;;;2.17;81.70;98960.81;5030572;28;8863;-54
2021/12/07 04:05:36;;;;;;;;;3.00;3.00;;;;;2.19;82.27;98966.00;5051084;28;8874;-54
2021/12/07 04:08:03;;;;;;;;;1.00;0.60;;;;;2.23;81.88;98963.06;5051479;28;8858;-54
2021/12/07 04:10:31;;;;;;;;;4.20;3.20;;;;;2.27;82.08;98958.47;5050538;28;8846;-54
2021/12/07 04:12:59;;;;;;;;;12.00;10.00;;;;;2.29;81.96;98964.47;5050644;28;8877;-54
2021/12/07 04:15:28;;;;;;;;;7.00;6.60;;;;;2.31;81.85;98965.22;5030885;28;8859;-54
2021/12/07 04:17:56;;;;;;;;;6.20;6.00;;;;;2.32;82.10;98970.38;5030082;28;8872;-55
2021/12/07 04:20:24;;;;;;;;;3.60;3.60;;;;;2.34;82.13;98970.28;5030671;28;8856;-54
2021/12/07 04:22:52;;;;;;;;;9.20;7.80;;;;;2.37;81.24;98970.09;5030415;28;9858;-55
2021/12/07 04:25:19;;;;;;;;;5.60;4.80;;;;;2.39;81.57;98978.72;5047921;28;8842;-54
2021/12/07 04:27:47;;;;;;;;;9.40;9.00;;;;;2.41;81.65;98982.94;5050708;28;8827;-54
2021/12/07 04:30:15;;;;;;;;;5.60;5.20;;;;;2.44;81.60;98989.78;5050290;28;8850;-54
2021/12/07 04:32:43;;;;;;;;;9.40;8.20;;;;;2.46;81.55;98988.75;5050202;28;8853;-54
2021/12/07 04:35:11;;;;;;;;;9.00;6.00;;;;;2.50;82.03;98984.16;5031711;28;8857;-54
2021/12/07 04:37:39;;;;;;;;;9.80;9.20;;;;;2.56;81.85;98981.16;5029765;28;8918;-54
2021/12/07 04:40:07;;;;;;;;;13.20;11.80;;;;;2.60;81.88;98987.88;5028914;28;8860;-54
2021/12/07 04:42:35;;;;;;;;;3.00;1.40;;;;;2.65;81.60;98991.06;5047775;28;8862;-54
2021/12/07 04:45:05;;;;;;;;;6.00;5.60;;;;;2.69;81.35;98989.91;5051357;28;9815;-54
2021/12/07 04:47:42;;;;;;;;;6.40;6.40;;;;;2.74;81.34;98996.56;5050320;28;8928;-54
2021/12/07 04:50:37;;;;;;;;;12.00;9.00;;;;;2.79;81.36;98994.50;5050424;28;8851;-54
2021/12/07 04:58:39;;;;;;;;;4.60;3.80;;;;;2.94;81.36;99001.41;5010968;28;8881;-54
2021/12/07 05:01:10;;;;;;;;;8.80;8.00;;;;;2.97;81.17;99003.88;5020298;28;8972;-53
2021/12/07 05:03:38;;;;;;;;;11.40;9.80;;;;;3.03;81.03;99003.44;5049106;28;9304;-54
2021/12/07 05:06:09;;;;;;;;;13.40;10.40;;;;;3.07;80.89;99015.47;5048501;28;8972;-53
2021/12/07 05:08:41;;;;;;;;;7.00;6.20;;;;;3.12;81.23;99013.41;5049655;28;8846;-53
2021/12/07 05:14:17;;;;;;;;;12.80;11.60;;;;;3.20;80.64;99026.88;4988211;28;8998;-54
2021/12/07 05:17:11;;;;;;;;;13.60;11.20;;;;;3.24;81.14;99027.53;4987354;28;8867;-54
2021/12/07 05:25:33;;;;;;;;;10.80;9.60;;;;;3.33;80.76;99037.47;5033403;28;8842;-54
2021/12/07 05:39:02;;;;;;;;;11.40;8.60;;;;;3.58;81.31;99053.31;5028819;28;8868;-54
2021/12/07 05:41:30;;;;;;;;;3.60;2.20;;;;;3.61;80.81;99047.84;5026296;28;8859;-54
2021/12/07 05:43:58;;;;;;;;;9.80;8.60;;;;;3.63;81.10;99059.13;5027079;28;8865;-54
2021/12/07 05:46:26;;;;;;;;;8.00;7.40;;;;;3.68;81.24;99060.50;5042333;28;8980;-54
2021/12/07 05:48:54;;;;;;;;;10.00;9.60;;;;;3.72;81.50;99069.88;5046137;28;8858;-54
2021/12/07 05:51:22;;;;;;;;;12.00;10.00;;;;;3.78;81.16;99067.69;5047749;28;8892;-54
2021/12/07 05:53:50;;;;;;;;;13.00;9.60;;;;;3.85;81.12;99073.41;5048126;28;8838;-54
2021/12/07 05:56:18;;;;;;;;;9.60;9.60;;;;;3.90;81.21;99064.22;5029076;28;9959;-54
2021/12/07 05:58:46;;;;;;;;;12.40;9.20;;;;;3.95;80.55;99070.06;5026739;28;8869;-54
2021/12/07 06:01:14;;;;;;;;;11.60;10.00;;;;;3.98;80.72;99072.47;5026568;28;8856;-54
2021/12/07 06:03:42;;;;;;;;;5.20;5.20;;;;;4.01;81.09;99079.31;5027765;28;8880;-54
2021/12/07 06:06:13;;;;;;;;;6.40;5.20;;;;;4.04;80.69;99084.41;5043678;28;8908;-54
2021/12/07 06:08:41;;;;;;;;;12.60;11.60;;;;;4.06;80.38;99085.13;5049774;28;8854;-54
2021/12/07 06:11:09;;;;;;;;;8.60;6.80;;;;;4.07;80.97;99086.81;5049808;28;8839;-54
2021/12/07 06:13:37;;;;;;;;;12.40;11.60;;;;;4.06;80.46;99098.31;5049345;28;8874;-54
2021/12/07 06:16:07;;;;;;;;;8.60;8.60;;;;;4.07;80.64;99106.13;5036687;28;8946;-54
2021/12/07 06:18:35;;;;;;;;;12.20;10.00;;;;;4.11;81.15;99112.03;5028529;28;8870;-55
2021/12/07 06:21:03;;;;;;;;;15.20;12.00;;;;;4.15;80.77;99122.25;5027555;28;8917;-55
2021/12/07 06:23:31;;;;;;;;;13.80;12.20;;;;;4.21;80.52;99123.63;5027973;28;8866;-54
2021/12/07 06:25:59;;;;;;;;;9.60;9.00;;;;;4.24;80.95;99133.94;5045001;28;8915;-55
2021/12/07 06:28:27;;;;;;;;;9.60;9.40;;;;;4.26;80.73;99145.25;5047172;28;8854;-54
2021/12/07 06:30:55;;;;;;;;;12.00;9.00;;;;;4.29;81.47;99148.53;5047237;28;8973;-55
2021/12/07 06:33:23;;;;;;;;;9.00;5.20;;;;;4.33;80.59;99151.78;5044153;28;9516;-54
2021/12/07 06:35:51;;;;;;;;;10.00;10.00;;;;;4.35;80.68;99142.81;5046724;28;8854;-55
2021/12/07 06:38:19;;;;;;;;;16.40;13.00;;;;;4.39;81.19;99156.63;5045578;28;8842;-55
2021/12/07 06:40:46;;;;;;;;;9.40;7.20;;;;;4.41;80.96;99157.38;5046291;28;8964;-54
2021/12/07 06:43:14;;;;;;;;;12.20;9.20;;;;;4.45;80.49;99156.22;5046106;28;8858;-54
2021/12/07 06:45:42;;;;;;;;;9.00;9.00;;;;;4.46;80.59;99161.41;5042500;28;8862;-54
2021/12/07 06:48:12;;;;;;;;;5.60;5.60;;;;;4.47;80.71;99154.31;5041021;28;8951;-53
2021/12/07 06:50:40;;;;;;;;;10.80;9.20;;;;;4.46;80.32;99152.63;5040738;28;8951;-54
2021/12/07 06:53:07;;;;;;;;;8.40;8.00;;;;;4.44;80.66;99149.25;5040120;28;8861;-54
2021/12/07 06:55:35;;;;;;;;;10.00;9.40;;;;;4.40;81.14;99156.53;5041375;28;9325;-54
2021/12/07 06:58:03;;;;;;;;;7.00;7.00;;;;;4.41;80.76;99146.84;5040912;28;9286;-54
2021/12/07 07:00:31;;;;;;;;;12.40;10.00;;;;;4.41;80.55;99146.84;5038909;28;9538;-54
2021/12/07 07:02:59;;;;;;;;;9.00;7.00;;;;;4.41;81.34;99162.66;5040099;28;8952;-54
2021/12/07 07:05:27;;;;;;;;;9.80;9.80;;;;;4.43;81.14;99166.03;5041357;28;8880;-54
2021/12/07 07:07:55;;;;;;;;;4.80;4.40;;;;;4.47;81.24;99167.50;5039728;28;8862;-54
2021/12/07 07:10:23;;;;;;;;;12.20;11.40;;;;;4.47;81.41;99170.13;5038436;28;8878;-54
2021/12/07 07:12:50;;;;;;;;;8.40;8.20;;;;;4.48;80.98;99180.56;5038880;28;8859;-53
2021/12/07 07:15:18;;;;;;;;;10.40;10.40;;;;;4.51;81.18;99188.31;5038405;28;8866;-53
2021/12/07 07:17:46;;;;;;;;;8.00;7.80;;;;;4.54;80.96;99196.00;5038487;28;8919;-54
2021/12/07 07:20:14;;;;;;;;;12.20;12.20;;;;;4.57;80.65;99202.84;5039716;28;8984;-53
2021/12/07 07:22:42;;;;;;;;;9.40;8.80;;;;;4.58;81.12;99200.09;5034136;28;8977;-54
2021/12/07 07:25:10;;;;;;;;;10.80;9.40;;;;;4.60;81.44;99194.72;5034821;28;8892;-54
2021/12/07 07:27:37;;;;;;;;;11.40;9.40;;;;;4.63;80.81;99194.53;5037540;28;8854;-53
2021/12/07 07:30:05;;;;;;;;;8.20;8.20;;;;;4.63;80.69;99199.81;5037038;28;9004;-53
2021/12/07 07:32:33;;;;;;;;;10.60;9.20;;;;;4.65;80.86;99203.19;5039322;28;8955;-53
2021/12/07 07:35:01;;;;;;;;;10.40;9.00;;;;;4.64;80.68;99206.75;5036416;28;8830;-53
2021/12/07 07:37:29;;;;;;;;;12.00;10.00;;;;;4.66;80.84;99223.31;5037501;28;9100;-54
2021/12/07 07:39:57;;;;;;;;;11.80;10.20;;;;;4.66;81.09;99228.59;5036882;28;8896;-53
2021/12/07 07:42:25;;;;;;;;;12.20;12.20;;;;;4.68;80.69;99229.31;5038456;28;8890;-53
2021/12/07 07:44:52;;;;;;;;;10.80;10.00;;;;;4.69;81.41;99220.47;5037839;28;8854;-53
2021/12/07 07:47:20;;;;;;;;;10.00;9.00;;;;;4.69;80.98;99220.47;5038095;28;8968;-53
2021/12/07 07:49:48;;;;;;;;;8.20;8.20;;;;;4.70;81.65;99223.00;5035401;28;8858;-53
2021/12/07 07:52:16;;;;;;;;;9.60;8.20;;;;;4.72;81.18;99217.63;5037137;28;9306;-54
2021/12/07 07:54:44;;;;;;;;;13.20;9.20;;;;;4.71;80.95;99223.88;5037928;28;9241;-55
2021/12/07 07:57:11;;;;;;;;;6.40;5.60;;;;;4.72;80.90;99215.81;5036039;28;8854;-54
2021/12/07 07:59:40;;;;;;;;;6.60;6.20;;;;;4.71;81.53;99213.31;5036817;28;8953;-54
2021/12/07 08:02:08;;;;;;;;;12.80;12.40;;;;;4.69;81.29;99208.13;5036037;28;8862;-54
2021/12/07 08:04:35;;;;;;;;;10.00;9.20;;;;;4.66;81.45;99205.72;5035177;28;8874;-54
2021/12/07 08:07:03;;;;;;;;;12.80;11.40;;;;;4.63;81.43;99210.34;5035565;28;8854;-54
2021/12/07 08:09:33;;;;;;;;;9.40;8.60;;;;;4.61;81.69;99212.22;5034261;28;9185;-54
2021/12/07 08:12:00;;;;;;;;;6.60;6.00;;;;;4.58;81.56;99218.53;5037274;28;8872;-54
2021/12/07 08:14:28;;;;;;;;;7.40;6.60;;;;;4.55;81.94;99224.03;5035825;28;9274;-54
2021/12/07 08:16:57;;;;;;;;;7.40;6.60;;;;;4.53;81.55;99231.22;5036635;28;8858;-54
2021/12/07 08:19:25;;;;;;;;;7.00;6.00;;;;;4.53;81.73;99240.88;5037217;28;8838;-54
2021/12/07 08:21:52;;;;;;;;;12.80;7.00;;;;;4.55;82.31;99242.47;5033761;28;8965;-54
2021/12/07 08:24:21;;;;;;;;;10.00;9.20;;;;;4.60;82.19;99234.28;5033415;28;8897;-54
2021/12/07 08:26:48;;;;;;;;;12.40;11.80;;;;;4.66;81.64;99239.13;5034269;28;8858;-54
2021/12/07 08:29:16;;;;;;;;;9.80;9.00;;;;;4.70;82.13;99244.09;5036890;28;8919;-54
2021/12/07 08:31:44;;;;;;;;;9.80;9.80;;;;;4.78;81.63;99227.78;5034228;28;8874;-54
2021/12/07 08:34:12;;;;;;;;;12.00;9.80;;;;;4.83;81.74;99236.19;5034358;28;9155;-54
2021/12/07 08:36:39;;;;;;;;;12.20;9.20;;;;;4.88;81.23;99231.47;5036288;28;8872;-53
2021/12/07 08:39:07;;;;;;;;;9.00;6.60;;;;;4.93;80.79;99224.91;5034765;28;9703;-54
2021/12/07 08:41:35;;;;;;;;;7.40;7.00;;;;;4.94;81.33;99223.16;5034614;28;9205;-54
2021/12/07 08:44:03;;;;;;;;;7.00;7.00;;;;;4.91;81.38;99225.97;5037572;28;8921;-54
2021/12/07 08:46:31;;;;;;;;;12.00;10.00;;;;;4.90;81.68;99226.94;5037634;28;8861;-54
2021/12/07 08:48:59;;;;;;;;;3.20;3.20;;;;;4.93;81.18;99224.09;5036215;28;8850;-53
2021/12/07 08:51:27;;;;;;;;;6.80;5.80;;;;;4.96;81.27;99229.16;5033932;28;8968;-54
2021/12/07 08:54:00;;;;;;;;;10.40;7.80;;;;;4.93;81.55;99229.38;5033735;28;8876;-53
2021/12/07 09:01:58;;;;;;;;;6.20;6.00;;;;;4.94;81.13;99228.41;5035606;28;8908;-54
2021/12/07 09:04:26;;;;;;;;;6.80;6.80;;;;;5.00;81.22;99222.69;5033710;28;8984;-54
2021/12/07 09:06:54;;;;;;;;;9.60;7.00;;;;;5.05;81.43;99233.78;5032399;28;8862;-54
2021/12/07 09:09:22;;;;;;;;;9.60;9.20;;;;;5.11;81.30;99238.66;5033467;28;9136;-54
2021/12/07 09:11:51;;;;;;;;;3.80;3.80;;;;;5.17;80.47;99225.88;5032143;28;9120;-54
2021/12/07 09:14:19;;;;;;;;;5.60;4.40;;;;;5.17;81.31;99222.41;5033324;28;8831;-55
2021/12/07 09:16:47;;;;;;;;;10.00;9.40;;;;;5.17;80.95;99236.44;5033273;28;8846;-54
2021/12/07 09:19:15;;;;;;;;;9.80;9.60;;;;;5.18;80.87;99232.00;5032077;28;9174;-54
2021/12/07 09:21:43;;;;;;;;;12.00;7.00;;;;;5.18;81.21;99237.28;5033039;28;9093;-54
2021/12/07 09:24:10;;;;;;;;;4.00;3.00;;;;;5.14;81.12;99225.25;5037120;28;8880;-54
2021/12/07 09:26:38;;;;;;;;;9.80;8.00;;;;;5.10;81.23;99242.25;5033350;28;8888;-54
2021/12/07 09:29:06;;;;;;;;;11.00;9.80;;;;;5.05;81.18;99241.72;5033140;28;8881;-54
2021/12/07 09:31:34;;;;;;;;;7.00;6.60;;;;;5.01;81.28;99254.25;5033595;28;8857;-54
2021/12/07 09:34:02;;;;;;;;;10.40;10.40;;;;;5.01;81.02;99253.44;5029589;28;8992;-54
2021/12/07 09:36:29;;;;;;;;;5.00;4.80;;;;;5.05;81.64;99258.41;5031729;28;9185;-54
2021/12/07 09:38:57;;;;;;;;;7.40;6.80;;;;;5.08;81.54;99258.16;5036673;28;8847;-54
2021/12/07 09:41:25;;;;;;;;;9.80;9.00;;;;;5.10;81.46;99264.19;5038132;28;8948;-54
2021/12/07 09:43:53;;;;;;;;;9.20;7.80;;;;;5.12;81.71;99266.72;5040032;28;8967;-54
2021/12/07 09:46:20;;;;;;;;;7.00;6.40;;;;;5.26;80.94;99270.09;5039450;28;9151;-53
2021/12/07 09:48:48;;;;;;;;;7.40;6.40;;;;;5.59;80.72;99273.03;5038442;28;9144;-54
2021/12/07 09:51:19;;;;;;;;;8.60;8.20;;;;;5.83;80.01;99265.19;5040007;28;8852;-54
2021/12/07 09:53:47;;;;;;;;;8.20;7.00;;;;;5.79;79.55;99269.00;5035449;28;8947;-54
2021/12/07 09:56:15;;;;;;;;;6.80;6.00;;;;;5.70;80.16;99274.94;5038176;28;8880;-54
2021/12/07 09:58:42;;;;;;;;;6.60;6.00;;;;;5.64;80.00;99272.72;5040417;28;8895;-54
2021/12/07 10:01:10;;;;;;;;;6.60;6.20;;;;;5.63;80.68;99276.31;5038103;28;9529;-55
2021/12/07 10:03:38;;;;;;;;;4.80;4.80;;;;;5.64;80.72;99267.44;5037634;28;9179;-54
2021/12/07 10:06:07;;;;;;;;;9.00;9.00;;;;;5.66;80.39;99271.66;5036712;28;8882;-54
2021/12/07 10:08:35;;;;;;;;;6.40;6.00;;;;;5.65;80.87;99280.53;5040089;28;8862;-54
2021/12/07 10:11:03;;;;;;;;;8.00;6.80;;;;;5.61;80.50;99276.41;5041743;28;8850;-54
2021/12/07 10:13:31;;;;;;;;;7.40;7.40;;;;;5.56;80.92;99278.53;5039968;28;8862;-53
2021/12/07 10:15:59;;;;;;;;;9.20;9.20;;;;;5.51;81.17;99280.66;5039525;28;8850;-54
2021/12/07 10:18:28;;;;;;;;;7.40;6.80;;;;;5.46;81.43;99288.03;5038425;28;8872;-54
2021/12/07 10:21:10;;;;;;;;;6.20;3.60;;;;;5.42;80.89;99275.16;5038978;28;8877;-54
2021/12/07 10:23:38;;;;;;;;;9.60;9.00;;;;;5.40;81.62;99279.72;5036330;28;8862;-54
2021/12/07 10:26:05;;;;;;;;;8.20;6.80;;;;;5.37;81.80;99272.00;5038685;28;8859;-54
2021/12/07 10:28:33;;;;;;;;;4.00;4.00;;;;;5.34;81.50;99269.56;5036165;28;8861;-54
2021/12/07 10:31:01;;;;;;;;;4.80;4.80;;;;;5.33;81.73;99283.72;5038144;28;9309;-54
2021/12/07 10:33:28;;;;;;;;;4.00;4.00;;;;;5.33;81.79;99275.81;5038899;28;8858;-54
2021/12/07 10:35:57;;;;;;;;;7.00;7.00;;;;;5.32;81.77;99279.41;5036654;28;8853;-54
2021/12/07 10:38:25;;;;;;;;;8.60;7.80;;;;;5.31;81.54;99272.44;5039482;28;8858;-54
2021/12/07 10:40:53;;;;;;;;;9.60;9.40;;;;;5.29;81.87;99272.53;5039661;28;8872;-54
2021/12/07 10:43:22;;;;;;;;;9.20;8.60;;;;;5.28;81.87;99262.06;5039498;28;8866;-54
2021/12/07 10:45:49;;;;;;;;;9.40;6.80;;;;;5.29;81.80;99258.47;5036531;28;9221;-54
2021/12/07 10:48:17;;;;;;;;;4.40;3.00;;;;;5.31;81.66;99248.69;5038444;28;8870;-54
2021/12/07 10:50:45;;;;;;;;;9.00;9.00;;;;;5.35;82.00;99252.78;5038196;28;9211;-54
2021/12/07 10:53:13;;;;;;;;;8.20;7.80;;;;;5.38;81.57;99248.13;5038445;28;9115;-54
2021/12/07 10:55:41;;;;;;;;;6.20;6.00;;;;;5.45;81.35;99249.41;5041803;28;8854;-54
2021/12/07 10:58:08;;;;;;;;;6.40;6.40;;;;;5.53;81.22;99251.53;5039185;28;8873;-54
2021/12/07 11:00:36;;;;;;;;;8.20;7.80;;;;;5.59;81.44;99244.00;5034751;28;8904;-54
2021/12/07 11:03:04;;;;;;;;;10.00;9.00;;;;;5.66;81.27;99247.91;5035107;28;9168;-54
2021/12/07 11:05:32;;;;;;;;;9.60;9.60;;;;;5.71;80.92;99247.56;5038249;28;8858;-54
2021/12/07 11:08:01;;;;;;;;;7.00;7.00;;;;;5.76;80.91;99237.53;5037658;28;8846;-54
2021/12/07 11:10:30;;;;;;;;;6.60;6.00;;;;;5.81;80.43;99241.56;5037958;28;9218;-54
2021/12/07 11:13:01;;;;;;;;;9.60;9.00;;;;;5.84;80.76;99240.50;5037886;28;8997;-54
2021/12/07 11:15:29;;;;;;;;;13.40;11.80;;;;;5.85;80.73;99235.09;5039618;28;8893;-54
2021/12/07 11:17:59;;;;;;;;;10.80;10.80;;;;;5.85;80.66;99242.19;5039615;28;8961;-54
2021/12/07 11:20:29;;;;;;;;;7.40;7.00;;;;;5.90;80.71;99240.88;5039756;28;8869;-54
2021/12/07 11:22:56;;;;;;;;;10.00;9.40;;;;;5.95;80.05;99237.91;5039974;28;8865;-54
2021/12/07 11:25:42;;;;;;;;;10.80;10.00;;;;;6.02;80.83;99231.22;5039940;28;8878;-54
2021/12/07 11:30:55;;;;;;;;;7.00;6.00;;;;;6.10;79.72;99232.38;5037771;28;8878;-54
2021/12/07 11:33:23;;;;;;;;;10.00;9.40;;;;;6.15;79.63;99224.09;5037705;28;8862;-54
2021/12/07 11:35:50;;;;;;;;;5.00;3.60;;;;;6.46;79.46;99220.88;5037600;28;8888;-54
2021/12/07 11:38:18;;;;;;;;;10.60;7.80;;;;;6.58;78.78;99220.81;5035746;28;8850;-54
2021/12/07 11:40:46;;;;;;;;;9.20;9.20;;;;;7.00;78.16;99214.91;5036851;28;8943;-55
2021/12/07 11:43:14;;;;;;;;;4.80;3.00;;;;;7.43;77.39;99201.84;5034424;28;8892;-55
2021/12/07 11:45:41;;;;;;;;;8.20;7.40;;;;;7.85;76.78;99210.69;5032605;28;8973;-54
2021/12/07 11:48:16;;;;;;;;;11.60;8.60;;;;;8.24;75.56;99201.34;5031719;28;9240;-55
2021/12/07 11:50:45;;;;;;;;;9.20;7.40;;;;;8.58;75.44;99201.09;5033223;28;8869;-55
2021/12/07 11:53:13;;;;;;;;;11.60;9.60;;;;;8.87;74.74;99188.00;5030552;28;8858;-55
2021/12/07 11:55:41;;;;;;;;;8.00;8.00;;;;;8.97;73.83;99189.75;5034868;28;9184;-55
2021/12/07 11:58:09;;;;;;;;;10.00;9.20;;;;;8.95;74.25;99183.75;5034998;28;9298;-55
2021/12/07 12:00:37;;;;;;;;;9.20;8.60;;;;;8.99;74.02;99187.84;5033219;28;9044;-55
2021/12/07 12:03:05;;;;;;;;;6.75;3.75;;;;;8.89;73.84;99176.28;5030882;28;8850;-54
2021/12/07 12:05:32;;;;;;;;;6.25;6.25;;;;;8.60;74.52;99177.09;5021213;28;8875;-55
2021/12/07 12:08:01;;;;;;;;;6.00;6.00;;;;;8.31;74.52;99179.53;5012303;28;8869;-55
2021/12/07 12:10:29;;;;;;;;;4.00;4.00;;;;;8.24;74.71;99174.84;5012535;28;8877;-54
2021/12/07 12:12:57;;;;;;;;;9.50;8.00;;;;;8.31;74.38;99166.25;5013828;28;9634;-54
2021/12/07 12:15:25;;;;;;;;;8.50;8.50;;;;;8.33;73.82;99172.25;5013763;28;9185;-54
2021/12/07 12:17:53;;;;;;;;;7.50;6.50;;;;;8.15;74.66;99172.91;5012691;28;8875;-54
2021/12/07 12:20:20;;;;;;;;;7.00;7.00;;;;;7.91;75.09;99177.56;5012160;28;8881;-54
2021/12/07 12:22:49;;;;;;;;;6.80;6.80;;;;;7.55;75.10;99175.22;5009240;28;8861;-55
2021/12/07 12:25:17;;;;;;;;;3.40;3.00;;;;;7.27;76.25;99186.28;5018152;28;9190;-54
2021/12/07 12:27:44;;;;;;;;;6.00;6.00;;;;;7.08;77.16;99191.34;5013447;28;9108;-54
2021/12/07 12:30:12;;;;;;;;;5.60;5.60;;;;;6.94;77.35;99199.50;5007535;28;9551;-54
2021/12/07 12:32:40;;;;;;;;;9.20;4.80;;;;;6.81;77.48;99189.97;5012944;28;9196;-54
2021/12/07 12:35:08;;;;;;;;;8.20;7.00;;;;;6.68;77.75;99207.75;5008136;28;9264;-55
2021/12/07 12:37:36;;;;;;;;;7.40;6.40;;;;;6.60;77.79;99199.53;5013479;28;8966;-55
2021/12/07 12:40:04;;;;;;;;;7.40;4.80;;;;;6.60;78.18;99194.25;5014746;28;9020;-54
2021/12/07 12:42:31;;;;;;;;;4.00;3.60;;;;;6.60;77.72;99192.44;5016480;28;8863;-54
2021/12/07 12:45:04;;;;;;;;;6.60;6.00;;;;;6.66;78.36;99177.94;5031514;28;8862;-54
2021/12/07 12:47:32;;;;;;;;;6.00;6.00;;;;;6.76;78.02;99176.25;5034820;28;9132;-55
2021/12/07 12:50:00;;;;;;;;;3.80;3.40;;;;;6.81;77.34;99172.28;5034530;28;8854;-54
2021/12/07 12:52:27;;;;;;;;;6.00;4.20;;;;;6.79;77.53;99170.72;5033879;28;8874;-54
2021/12/07 12:54:55;;;;;;;;;4.80;3.00;;;;;6.77;77.58;99159.41;5033976;28;8872;-55
2021/12/07 12:57:25;;;;;;;;;5.20;3.00;;;;;6.79;77.16;99173.34;5036706;28;8969;-54
2021/12/07 12:59:53;;;;;;;;;3.00;3.00;;;;;6.80;77.00;99161.81;5036226;28;9131;-54
2021/12/07 13:02:20;;;;;;;;;6.60;3.60;;;;;6.86;77.03;99159.56;5032489;28;8874;-55
2021/12/07 13:04:48;;;;;;;;;3.80;3.80;;;;;6.92;77.04;99159.09;5034890;28;8858;-54
2021/12/07 13:07:25;;;;;;;;;3.00;3.00;;;;;7.00;76.66;99145.25;5033289;28;8850;-54
2021/12/07 13:09:53;;;;;;;;;1.00;0.60;;;;;7.09;76.41;99147.19;5036173;28;9415;-54
2021/12/07 13:12:21;;;;;;;;;3.20;3.20;;;;;7.14;76.14;99145.03;5037075;28;8847;-55